createdAt,value
2022-09-06T00:00:27.405Z,21.50
2022-09-06T00:02:55.913Z,21.60
2022-09-06T00:05:24.041Z,21.80
2022-09-06T00:07:53.447Z,21.80
2022-09-06T00:10:21.598Z,21.40
2022-09-06T00:12:49.796Z,21.40
2022-09-06T00:17:46.553Z,21.20
2022-09-06T00:20:14.843Z,21.30
2022-09-06T00:22:43.115Z,21.40
2022-09-06T00:25:12.554Z,21.70
2022-09-06T00:27:40.768Z,21.10
2022-09-06T00:30:11.135Z,20.80
2022-09-06T00:32:39.165Z,20.60
2022-09-06T00:35:07.919Z,20.70
2022-09-06T00:37:35.939Z,21.30
2022-09-06T00:40:04.890Z,21.10
2022-09-06T00:42:34.472Z,21.20
2022-09-06T00:45:02.964Z,20.90
2022-09-06T00:47:31.778Z,21.20
2022-09-06T00:50:02.093Z,20.90
2022-09-06T00:52:31.394Z,20.70
2022-09-06T00:55:00.625Z,20.40
2022-09-06T00:57:32.096Z,20.30
2022-09-06T01:00:03.177Z,20.60
2022-09-06T01:05:00.292Z,21.30
2022-09-06T01:07:45.267Z,20.30
2022-09-06T01:10:54.284Z,20.50
2022-09-06T01:13:38.647Z,21.00
2022-09-06T01:16:19.071Z,20.30
2022-09-06T01:19:15.284Z,20.40
2022-09-06T01:21:51.749Z,20.20
2022-09-06T01:24:45.154Z,20.10
2022-09-06T01:27:53.830Z,19.90
2022-09-06T01:30:22.368Z,19.60
2022-09-06T01:33:01.046Z,20.50
2022-09-06T01:35:36.113Z,19.40
2022-09-06T01:38:05.339Z,20.50
2022-09-06T01:40:36.367Z,19.60
2022-09-06T01:43:11.094Z,19.50
2022-09-06T01:45:52.122Z,19.90
2022-09-06T01:48:33.786Z,20.00
2022-09-06T01:51:16.001Z,20.00
2022-09-06T01:54:08.837Z,20.00
2022-09-06T01:56:50.802Z,19.60
2022-09-06T01:59:31.546Z,19.80
2022-09-06T02:02:10.199Z,19.50
2022-09-06T02:04:46.938Z,20.20
2022-09-06T02:07:21.834Z,19.20
2022-09-06T02:09:56.329Z,19.50
2022-09-06T02:12:27.893Z,19.90
2022-09-06T02:15:02.618Z,19.60
2022-09-06T02:17:35.311Z,20.60
2022-09-06T02:20:07.623Z,20.90
2022-09-06T02:22:42.504Z,20.00
2022-09-06T02:25:14.160Z,20.00
2022-09-06T02:27:42.212Z,19.30
2022-09-06T02:30:13.346Z,21.00
2022-09-06T02:32:47.495Z,19.90
2022-09-06T02:35:17.522Z,20.10
2022-09-06T02:37:46.228Z,19.80
2022-09-06T02:40:14.406Z,19.70
2022-09-06T02:42:42.799Z,19.70
2022-09-06T02:45:12.482Z,20.10
2022-09-06T02:47:40.645Z,20.80
2022-09-06T02:50:09.735Z,21.30
2022-09-06T02:52:37.757Z,20.00
2022-09-06T02:55:07.485Z,20.10
2022-09-06T02:57:35.528Z,20.80
2022-09-06T03:00:04.898Z,21.30
2022-09-06T03:02:34.342Z,21.00
2022-09-06T03:05:02.954Z,20.30
2022-09-06T03:07:30.951Z,19.80
2022-09-06T03:09:59.020Z,20.20
2022-09-06T03:12:27.106Z,19.90
2022-09-06T03:14:55.275Z,19.30
2022-09-06T03:17:23.316Z,20.40
2022-09-06T03:19:53.338Z,20.60
2022-09-06T03:22:21.740Z,20.30
2022-09-06T03:24:49.861Z,20.50
2022-09-06T03:27:17.891Z,20.10
2022-09-06T03:29:45.958Z,20.90
2022-09-06T03:32:13.993Z,20.40
2022-09-06T03:34:42.045Z,20.40
2022-09-06T03:37:11.524Z,20.60
2022-09-06T03:39:39.613Z,20.00
2022-09-06T03:42:08.197Z,20.00
2022-09-06T03:44:36.282Z,20.50
2022-09-06T03:47:05.377Z,20.60
2022-09-06T03:49:33.395Z,19.60
2022-09-06T03:52:01.606Z,20.00
2022-09-06T03:54:31.046Z,20.50
2022-09-06T03:56:59.140Z,19.70
2022-09-06T03:59:27.159Z,20.50
2022-09-06T04:01:55.275Z,20.00
2022-09-06T04:04:23.188Z,20.20
2022-09-06T04:06:51.173Z,21.00
2022-09-06T04:09:19.053Z,19.20
2022-09-06T04:11:48.376Z,20.80
2022-09-06T04:14:16.311Z,20.20
2022-09-06T04:16:44.353Z,20.10
2022-09-06T04:19:12.582Z,20.10
2022-09-06T04:21:40.536Z,20.10
2022-09-06T04:24:08.490Z,20.30
2022-09-06T04:26:36.523Z,20.10
2022-09-06T04:29:06.023Z,19.90
2022-09-06T04:31:34.136Z,20.10
2022-09-06T04:34:02.099Z,20.50
2022-09-06T04:36:30.541Z,20.10
2022-09-06T04:38:58.632Z,20.10
2022-09-06T04:41:26.538Z,20.10
2022-09-06T04:43:54.492Z,20.10
2022-09-06T04:46:25.848Z,20.20
2022-09-06T04:48:55.358Z,20.40
2022-09-06T04:51:24.430Z,19.90
2022-09-06T04:53:53.116Z,20.20
2022-09-06T04:56:22.350Z,20.20
2022-09-06T04:58:52.724Z,20.20
2022-09-06T05:01:21.433Z,20.20
2022-09-06T05:03:53.945Z,20.20
2022-09-06T05:06:25.363Z,20.10
2022-09-06T05:08:53.495Z,20.10
2022-09-06T05:11:21.428Z,20.00
2022-09-06T05:13:50.158Z,20.70
2022-09-06T05:16:18.253Z,20.10
2022-09-06T05:18:46.229Z,20.00
2022-09-06T05:21:15.868Z,19.10
2022-09-06T05:23:44.713Z,20.00
2022-09-06T05:26:12.862Z,19.50
2022-09-06T05:28:41.038Z,20.20
2022-09-06T05:31:10.914Z,19.40
2022-09-06T05:33:39.429Z,19.60
2022-09-06T05:36:08.818Z,19.60
2022-09-06T05:38:38.182Z,19.70
2022-09-06T05:41:06.540Z,20.00
2022-09-06T05:43:34.605Z,19.40
2022-09-06T05:46:02.799Z,19.90
2022-09-06T05:48:36.119Z,19.60
2022-09-06T05:51:07.761Z,19.60
2022-09-06T05:53:38.615Z,20.70
2022-09-06T05:56:07.916Z,19.90
2022-09-06T05:58:36.333Z,20.00
2022-09-06T06:01:09.290Z,19.40
2022-09-06T06:03:37.480Z,20.50
2022-09-06T06:06:05.935Z,20.10
2022-09-06T06:08:34.054Z,19.80
2022-09-06T06:11:03.883Z,20.40
2022-09-06T06:13:34.964Z,19.60
2022-09-06T06:16:04.354Z,20.00
2022-09-06T06:18:32.585Z,20.30
2022-09-06T06:21:12.512Z,20.00
2022-09-06T06:23:41.813Z,20.10
2022-09-06T06:26:12.681Z,20.30
2022-09-06T06:28:41.550Z,20.80
2022-09-06T06:31:12.130Z,20.60
2022-09-06T06:33:41.073Z,20.30
2022-09-06T06:36:22.375Z,21.20
2022-09-06T06:38:53.337Z,20.50
2022-09-06T06:41:26.335Z,20.50
2022-09-06T06:43:55.249Z,20.20
2022-09-06T06:46:25.334Z,21.30
2022-09-06T06:48:55.192Z,21.20
2022-09-06T06:51:25.563Z,20.70
2022-09-06T06:53:54.130Z,21.50
2022-09-06T06:56:26.366Z,21.50
2022-09-06T06:58:57.674Z,21.60
2022-09-06T07:01:27.911Z,21.60
2022-09-06T07:03:56.217Z,22.10
2022-09-06T07:09:13.448Z,21.80
2022-09-06T07:11:43.349Z,22.20
2022-09-06T07:14:11.447Z,21.70
2022-09-06T07:16:39.544Z,21.60
2022-09-06T07:19:08.322Z,22.40
2022-09-06T07:26:40.392Z,22.20
2022-09-06T07:29:10.216Z,22.10
2022-09-06T07:34:28.120Z,21.80
2022-09-06T07:36:56.952Z,21.90
2022-09-06T07:39:25.506Z,22.10
2022-09-06T07:41:53.619Z,22.00
2022-09-06T07:44:23.028Z,22.80
2022-09-06T07:46:52.692Z,22.00
2022-09-06T07:49:20.982Z,22.10
2022-09-06T07:51:49.978Z,21.90
2022-09-06T07:54:33.316Z,22.70
2022-09-06T07:57:01.385Z,22.00
2022-09-06T07:59:30.792Z,22.50
2022-09-06T08:01:59.161Z,22.40
2022-09-06T08:04:27.201Z,22.30
2022-09-06T08:09:45.341Z,22.10
2022-09-06T08:12:13.409Z,22.30
2022-09-06T08:14:42.808Z,22.50
2022-09-06T08:17:11.032Z,22.60
2022-09-06T08:19:39.124Z,23.20
2022-09-06T08:22:07.217Z,23.10
2022-09-06T08:24:36.293Z,22.70
2022-09-06T08:27:07.690Z,24.10
2022-09-06T08:32:05.919Z,23.50
2022-09-06T08:34:34.070Z,24.00
2022-09-06T08:39:30.736Z,26.40
2022-09-06T08:42:03.685Z,26.10
2022-09-06T08:47:27.907Z,26.20
2022-09-06T08:50:02.137Z,26.50
2022-09-06T08:53:16.774Z,26.90
2022-09-06T08:55:54.154Z,27.70
2022-09-06T08:58:47.669Z,28.80
2022-09-06T09:01:23.076Z,29.30
2022-09-06T09:03:56.906Z,28.60
2022-09-06T09:06:26.229Z,28.60
2022-09-06T09:09:03.509Z,28.10
2022-09-06T09:11:33.520Z,28.00
2022-09-06T09:14:09.717Z,28.10
2022-09-06T09:16:37.836Z,28.20
2022-09-06T09:19:09.364Z,28.10
2022-09-06T09:21:41.037Z,27.90
2022-09-06T09:24:13.283Z,27.50
2022-09-06T09:26:51.422Z,27.30
2022-09-06T09:29:23.931Z,27.80
2022-09-06T09:31:56.528Z,28.70
2022-09-06T09:34:35.523Z,31.20
2022-09-06T09:40:08.279Z,32.10
2022-09-06T09:42:38.539Z,32.80
2022-09-06T09:45:23.939Z,33.30
2022-09-06T09:47:51.999Z,33.60
2022-09-06T09:50:31.396Z,33.90
2022-09-06T09:53:10.476Z,34.10
2022-09-06T09:55:39.846Z,34.10
2022-09-06T09:58:09.818Z,34.50
2022-09-06T10:00:40.745Z,34.10
2022-09-06T10:03:18.057Z,34.40
2022-09-06T10:06:03.323Z,34.90
2022-09-06T10:08:34.632Z,34.00
2022-09-06T10:11:02.696Z,34.20
2022-09-06T10:13:33.514Z,34.30
2022-09-06T10:16:03.275Z,34.60
2022-09-06T10:18:35.584Z,34.90
2022-09-06T10:21:07.296Z,35.10
2022-09-06T10:26:54.180Z,35.50
2022-09-06T10:29:30.758Z,35.60
2022-09-06T10:32:15.623Z,35.80
2022-09-06T10:35:05.651Z,36.20
2022-09-06T10:38:07.571Z,36.50
2022-09-06T10:40:44.776Z,36.70
2022-09-06T10:43:19.615Z,37.00
2022-09-06T10:45:58.617Z,37.10
2022-09-06T10:48:32.141Z,37.10
2022-09-06T10:51:09.523Z,37.00
2022-09-06T10:53:48.227Z,37.10
2022-09-06T10:56:22.879Z,37.20
2022-09-06T11:02:01.809Z,37.10
2022-09-06T11:07:30.915Z,37.10
2022-09-06T11:10:07.790Z,37.00
2022-09-06T11:12:44.527Z,37.00
2022-09-06T11:15:16.060Z,37.10
2022-09-06T11:17:50.911Z,37.10
2022-09-06T11:20:31.282Z,37.10
2022-09-06T11:23:38.818Z,37.00
2022-09-06T11:26:43.825Z,36.90
2022-09-06T11:29:20.438Z,37.10
2022-09-06T11:34:55.205Z,37.30
2022-09-06T11:37:29.409Z,37.30
2022-09-06T11:43:48.629Z,37.00
2022-09-06T11:47:00.047Z,37.20
2022-09-06T11:49:42.300Z,37.40
2022-09-06T11:53:12.953Z,37.30
2022-09-06T11:55:44.560Z,37.10
2022-09-06T11:58:28.920Z,37.30
2022-09-06T12:01:41.899Z,37.70
2022-09-06T12:04:11.750Z,37.50
2022-09-06T12:06:42.937Z,37.80
2022-09-06T12:09:32.631Z,38.50
2022-09-06T12:12:02.341Z,38.90
2022-09-06T12:14:39.618Z,38.80
2022-09-06T12:17:46.000Z,38.60
2022-09-06T12:21:02.722Z,38.70
2022-09-06T12:23:44.369Z,38.70
2022-09-06T12:26:13.727Z,38.30
2022-09-06T12:28:51.393Z,38.00
2022-09-06T12:31:35.924Z,37.70
2022-09-06T12:34:21.062Z,37.30
2022-09-06T12:36:55.412Z,37.40
2022-09-06T12:39:24.250Z,37.30
2022-09-06T12:41:57.013Z,37.40
2022-09-06T12:44:34.653Z,37.70
2022-09-06T12:47:12.942Z,38.10
2022-09-06T12:49:42.682Z,38.10
2022-09-06T12:52:14.202Z,37.30
2022-09-06T12:54:50.082Z,36.80
2022-09-06T12:57:24.462Z,36.90
2022-09-06T12:59:55.254Z,37.30
2022-09-06T13:02:28.813Z,37.00
2022-09-06T13:05:06.115Z,36.60
2022-09-06T13:07:45.561Z,37.10
2022-09-06T13:10:17.078Z,36.80
2022-09-06T13:12:49.040Z,36.50
2022-09-06T13:15:21.548Z,36.50
2022-09-06T13:17:50.525Z,36.80
2022-09-06T13:20:30.175Z,37.50
2022-09-06T13:23:10.530Z,38.10
2022-09-06T13:25:50.002Z,38.20
2022-09-06T13:28:30.162Z,38.10
2022-09-06T13:31:11.232Z,36.20
2022-09-06T13:33:40.586Z,36.20
2022-09-06T13:36:34.149Z,35.30
2022-09-06T13:39:04.082Z,34.30
2022-09-06T13:41:41.270Z,33.00
2022-09-06T13:44:23.377Z,32.40
2022-09-06T13:46:55.304Z,31.90
2022-09-06T13:49:24.598Z,31.60
2022-09-06T13:52:00.318Z,31.40
2022-09-06T13:54:29.563Z,30.90
2022-09-06T13:59:26.763Z,31.60
2022-09-06T14:02:03.264Z,32.40
2022-09-06T14:04:32.629Z,33.80
2022-09-06T14:07:02.618Z,33.90
2022-09-06T14:09:31.152Z,34.80
2022-09-06T14:11:59.575Z,35.60
2022-09-06T14:14:28.142Z,35.50
2022-09-06T14:16:57.644Z,35.20
2022-09-06T14:19:29.061Z,35.60
2022-09-06T14:21:57.311Z,35.80
2022-09-06T14:24:26.957Z,36.30
2022-09-06T14:26:55.056Z,36.70
2022-09-06T14:29:23.847Z,36.30
2022-09-06T14:31:52.577Z,36.00
2022-09-06T14:34:21.713Z,36.50
2022-09-06T14:36:49.761Z,35.90
2022-09-06T14:39:17.875Z,35.60
2022-09-06T14:41:47.532Z,35.40
2022-09-06T14:44:15.578Z,35.90
2022-09-06T14:46:43.827Z,36.10
2022-09-06T14:49:11.937Z,35.90
2022-09-06T14:51:40.769Z,35.90
2022-09-06T14:54:12.147Z,36.40
2022-09-06T14:56:41.952Z,36.10
2022-09-06T14:59:12.673Z,36.40
2022-09-06T15:01:41.384Z,36.80
2022-09-06T15:04:11.827Z,36.90
2022-09-06T15:06:47.354Z,36.90
2022-09-06T15:09:18.202Z,36.70
2022-09-06T15:11:50.577Z,36.60
2022-09-06T15:14:23.565Z,36.40
2022-09-06T15:16:56.731Z,36.00
2022-09-06T15:19:26.795Z,35.70
2022-09-06T15:21:55.976Z,35.70
2022-09-06T15:24:24.699Z,35.70
2022-09-06T15:26:53.591Z,35.70
2022-09-06T15:29:23.439Z,35.70
2022-09-06T15:31:51.912Z,35.70
2022-09-06T15:34:21.267Z,35.50
2022-09-06T15:36:50.013Z,35.50
2022-09-06T15:39:18.675Z,35.50
2022-09-06T15:41:47.007Z,35.50
2022-09-06T15:44:18.897Z,35.30
2022-09-06T15:46:51.266Z,35.20
2022-09-06T15:49:27.030Z,34.70
2022-09-06T15:51:57.593Z,34.50
2022-09-06T15:54:46.141Z,34.10
2022-09-06T15:57:16.352Z,34.10
2022-09-06T15:59:44.606Z,34.20
2022-09-06T16:02:14.648Z,34.10
2022-09-06T16:04:42.987Z,34.10
2022-09-06T16:07:11.563Z,34.10
2022-09-06T16:09:40.181Z,34.00
2022-09-06T16:12:09.292Z,34.20
2022-09-06T16:14:38.727Z,33.30
2022-09-06T16:17:07.388Z,32.30
2022-09-06T16:19:37.391Z,31.60
2022-09-06T16:22:05.690Z,31.00
2022-09-06T16:24:34.190Z,30.70
2022-09-06T16:27:02.677Z,30.20
2022-09-06T16:32:00.612Z,29.80
2022-09-06T16:34:28.787Z,29.60
2022-09-06T16:36:58.431Z,29.40
2022-09-06T16:39:26.991Z,29.30
2022-09-06T16:41:55.110Z,28.90
2022-09-06T16:44:23.325Z,29.00
2022-09-06T16:46:52.967Z,28.80
2022-09-06T16:49:21.618Z,28.60
2022-09-06T16:51:51.198Z,28.50
2022-09-06T16:54:21.525Z,28.20
2022-09-06T16:56:49.622Z,28.30
2022-09-06T16:59:18.952Z,28.20
2022-09-06T17:01:47.377Z,28.10
2022-09-06T17:04:15.912Z,27.60
2022-09-06T17:06:45.630Z,27.80
2022-09-06T17:09:16.429Z,27.70
2022-09-06T17:11:46.872Z,27.70
2022-09-06T17:14:14.987Z,27.30
2022-09-06T17:17:01.052Z,27.20
2022-09-06T17:19:29.948Z,27.30
2022-09-06T17:24:27.344Z,27.20
2022-09-06T17:26:56.771Z,26.90
2022-09-06T17:29:26.607Z,26.70
2022-09-06T17:31:56.163Z,26.90
2022-09-06T17:34:24.533Z,26.80
2022-09-06T17:36:53.194Z,26.40
2022-09-06T17:39:22.125Z,26.40
2022-09-06T17:41:53.562Z,26.20
2022-09-06T17:44:24.560Z,26.30
2022-09-06T17:49:41.535Z,25.70
2022-09-06T17:52:09.911Z,25.40
2022-09-06T17:54:38.001Z,25.90
2022-09-06T17:57:06.073Z,25.30
2022-09-06T17:59:36.250Z,25.50
2022-09-06T18:02:05.757Z,24.80
2022-09-06T18:04:34.270Z,25.10
2022-09-06T18:07:02.366Z,24.80
2022-09-06T18:09:30.576Z,24.90
2022-09-06T18:11:58.917Z,24.60
2022-09-06T18:14:28.844Z,25.20
2022-09-06T18:16:58.439Z,24.50
2022-09-06T18:19:27.414Z,24.20
2022-09-06T18:21:57.106Z,24.30
2022-09-06T18:24:25.426Z,24.70
2022-09-06T18:26:53.518Z,24.20
2022-09-06T18:29:21.829Z,23.70
2022-09-06T18:31:53.420Z,24.20
2022-09-06T18:34:23.074Z,23.80
2022-09-06T18:36:51.221Z,23.70
2022-09-06T18:39:20.321Z,24.00
2022-09-06T18:42:07.074Z,23.70
2022-09-06T18:44:36.491Z,23.70
2022-09-06T18:47:07.296Z,23.40
2022-09-06T18:49:40.577Z,23.50
2022-09-06T18:52:11.443Z,23.40
2022-09-06T18:54:39.449Z,23.80
2022-09-06T18:57:07.663Z,23.30
2022-09-06T18:59:35.761Z,23.20
2022-09-06T19:02:04.040Z,23.30
2022-09-06T19:04:32.263Z,23.30
2022-09-06T19:07:03.913Z,23.40
2022-09-06T19:09:31.846Z,23.20
2022-09-06T19:11:59.937Z,23.30
2022-09-06T19:14:28.164Z,23.20
2022-09-06T19:16:56.261Z,22.80
2022-09-06T19:19:24.497Z,23.10
2022-09-06T19:21:52.599Z,23.10
2022-09-06T19:24:24.559Z,22.90
2022-09-06T19:26:55.148Z,23.00
2022-09-06T19:31:52.906Z,22.90
2022-09-06T19:34:21.725Z,22.60
2022-09-06T19:36:50.026Z,22.40
2022-09-06T19:39:18.566Z,22.70
2022-09-06T19:41:48.114Z,22.80
2022-09-06T19:44:17.746Z,23.10
2022-09-06T19:46:46.967Z,22.60
2022-09-06T19:49:17.041Z,22.50
2022-09-06T19:51:46.394Z,22.70
2022-09-06T19:56:44.237Z,22.40
2022-09-06T19:59:15.591Z,23.10
2022-09-06T20:01:46.639Z,22.80
2022-09-06T20:04:15.806Z,22.80
2022-09-06T20:06:44.311Z,22.30
2022-09-06T20:09:12.890Z,22.40
2022-09-06T20:11:42.830Z,22.50
2022-09-06T20:14:11.657Z,22.70
2022-09-06T20:16:42.681Z,22.40
2022-09-06T20:19:14.450Z,22.40
2022-09-06T20:21:42.928Z,22.30
2022-09-06T20:24:11.020Z,23.00
2022-09-06T20:26:39.504Z,22.20
2022-09-06T20:29:08.059Z,22.10
2022-09-06T20:31:38.219Z,21.70
2022-09-06T20:34:07.965Z,21.90
2022-09-06T20:36:36.519Z,22.00
2022-09-06T20:39:05.438Z,22.10
2022-09-06T20:41:33.818Z,21.90
2022-09-06T20:44:02.681Z,21.80
2022-09-06T20:46:35.051Z,22.00
2022-09-06T20:49:04.727Z,21.80
2022-09-06T20:51:36.443Z,21.90
2022-09-06T20:54:06.609Z,22.30
2022-09-06T20:56:37.854Z,21.30
2022-09-06T20:59:08.534Z,21.50
2022-09-06T21:01:40.650Z,23.20
2022-09-06T21:04:10.603Z,21.60
2022-09-06T21:06:41.241Z,21.20
2022-09-06T21:09:11.900Z,21.50
2022-09-06T21:11:40.631Z,21.10
2022-09-06T21:14:09.389Z,21.00
2022-09-06T21:16:39.408Z,21.40
2022-09-06T21:19:11.612Z,20.90
2022-09-06T21:21:44.346Z,21.80
2022-09-06T21:24:13.252Z,20.90
2022-09-06T21:26:43.893Z,21.40
2022-09-06T21:29:11.951Z,21.10
2022-09-06T21:31:39.981Z,21.40
2022-09-06T21:34:16.860Z,21.10
2022-09-06T21:36:46.718Z,21.10
2022-09-06T21:39:17.398Z,21.80
2022-09-06T21:41:46.460Z,21.30
2022-09-06T21:44:14.745Z,21.20
2022-09-06T21:46:43.278Z,21.70
2022-09-06T21:49:13.953Z,21.00
2022-09-06T21:51:42.778Z,21.10
2022-09-06T21:54:12.447Z,20.70
2022-09-06T21:56:41.060Z,20.80
2022-09-06T21:59:10.080Z,20.90
2022-09-06T22:01:39.969Z,20.90
2022-09-06T22:04:08.817Z,20.50
2022-09-06T22:06:37.779Z,20.90
2022-09-06T22:09:10.705Z,21.10
2022-09-06T22:11:43.671Z,20.00
2022-09-06T22:14:13.893Z,20.50
2022-09-06T22:16:42.741Z,20.70
2022-09-06T22:19:11.954Z,20.30
2022-09-06T22:21:40.457Z,20.30
2022-09-06T22:24:12.787Z,20.50
2022-09-06T22:26:42.943Z,20.60
2022-09-06T22:29:13.712Z,20.60
2022-09-06T22:31:42.587Z,20.00
2022-09-06T22:34:11.487Z,20.40
2022-09-06T22:36:40.189Z,20.60
2022-09-06T22:39:09.544Z,20.60
2022-09-06T22:41:40.819Z,20.40
2022-09-06T22:44:09.088Z,21.10
2022-09-06T22:46:38.251Z,20.70
2022-09-06T22:49:06.408Z,20.40
2022-09-06T22:51:34.485Z,20.90
2022-09-06T22:54:02.605Z,21.00
2022-09-06T22:56:30.652Z,20.70
2022-09-06T22:59:01.172Z,20.70
2022-09-06T23:01:29.617Z,20.60
2022-09-06T23:04:01.105Z,20.50
2022-09-06T23:06:29.189Z,20.90
2022-09-06T23:08:59.920Z,19.90
2022-09-06T23:11:28.685Z,20.00
2022-09-06T23:13:59.566Z,20.00
2022-09-06T23:16:29.588Z,20.20
2022-09-06T23:18:58.217Z,20.00
2022-09-06T23:21:27.473Z,20.40
2022-09-06T23:23:57.844Z,20.40
2022-09-06T23:26:29.433Z,20.20
2022-09-06T23:28:58.259Z,20.20
2022-09-06T23:31:29.652Z,20.30
2022-09-06T23:33:59.986Z,20.30
2022-09-06T23:36:28.835Z,20.80
2022-09-06T23:38:57.633Z,20.50
2022-09-06T23:41:26.483Z,21.30
2022-09-06T23:43:54.857Z,19.90
2022-09-06T23:46:22.973Z,20.60
2022-09-06T23:48:52.640Z,21.00
2022-09-06T23:51:20.767Z,20.60
2022-09-06T23:56:17.158Z,20.60
2022-09-06T23:58:45.195Z,20.30
